Página principal
METAR-TAF:

METAR-TAF

Aeroportos :

Beaver Creek, Yukon, Canadá

latitude: 62-25N, longitude: 140-52W, altura: 649 m

Observação actual do tempo

O boletim foi feito há 24 minutos, às 18:00 UTC
Vento calmo
Temperatura 17°C
Humidade 52%
Pressão 1015 hPa
Visibilidade: 40.2 km
Poucas nuvensa uma altura de 5000 ft, Cumulus congestus.
Nuvens dispersasa uma altura de 8000 ft
Nuvens dispersasa uma altura de 25000 ft

METAR: CYXQ 201800Z 00000KT 25SM FEW050TCU SCT080 SCT250 17/07 A2996 RMK TCU1AC1CI2 SLP158 DENSITY ALT 2900FT

Hora: 11:24 (18:24 UTC)


TAF: em falta

Observações e previsões do tempo de mais de 4000 aeroportos (mensagens METAR e TAF).

As estações disponíveis são os pontos amarelos e vermelhos sobre o mapa.

Mova o rato sobre o mapa para ver o nome da estação.

Depois clique no ponto para visualizar as observações e previsões meteorológicas.

Para alterar o mapa : clique nos botões verdes com uma cruz preta para aumentar o zoom; no botão verde com uma pitada de zoom; ou nas setas verdes para mapas adjacentes.


METAR-TAF: